Cambria, WI (53923)

4:02 PM CDT on April 29, 2017 (GMT -0500)
MD6359 | | Change Station

Elev 944 ft 43.54 °N, 89.11 °W | Updated 25 minutes ago

Mostly Cloudy
Mostly Cloudy
45.0 °F
Feels Like 43 °F
N
4.0
Wind Variable Wind from NE
Gusts 17.0 mph

Today
High -- | Low -- °F
--% Chance of Precip.
Yesterday
High -- | Low -- °F
Precip. -- in
Pressure 30.21 in
Visibility 10.0 miles
Clouds Scattered Clouds 5500 ft
Scattered Clouds 7500 ft
Mostly Cloudy 9000 ft
Windchill 43 °F
Dew Point 35 °F
Humidity 69%
Rainfall 0.19 in
Snow Depth Not available.
5:51 AM 7:56 PM
Waxing Crescent, 16% visible
METAR KUNU 292055Z AUTO 02012G22KT 10SM SCT055 SCT075 BKN090 06/00 A3021 RMK AO2 T00571001
Pressure 30.21 in
Visibility 10.0 miles
Clouds Scattered Clouds 5500 ft
Scattered Clouds 7500 ft
Mostly Cloudy 9000 ft
Windchill 43 °F
Dew Point 35 °F
Humidity 69%
Rainfall 0.19 in
Snow Depth Not available.
5:51 AM 7:56 PM
Waxing Crescent, 16% visible
METAR KUNU 292055Z AUTO 02012G22KT 10SM SCT055 SCT075 BKN090 06/00 A3021 RMK AO2 T00571001

Get Severe Weather Alerts

Thanks for signing up!

Be on the lookout for a verification email in your inbox.

You'll start receiving the daily forecast at 8 AM.

×

10-Day Weather Forecast

Almanac

Astronomy

Apr. 29, 2017 Rise Set
Actual Time
Civil Twilight
Nautical Twilight
Astronomical Twilight
Moon
Length of Visible Light
Length of Day
Tomorrow will be .
, % of the Moon is Illuminated

Today's Extremes

State Highs State Lows

Community

WunderPhotos

WunderBlog® & News

Nearby

Air Quality

  Air Quality AQ Index Pollutant
Not available.

Snow Depth

Station Depth Elevation

Earthquake Activity

City Distance Mag. Time & Date
Minimum magnitude displayed is 2.5.

Coastal Water Temperatures

Place Temperature

Stations

Nearby Weather Stations

Station Location Temp. Windchill Dew Point Humidity Wind Precip. Elev Updated Type
                   

Watches & Warnings

There are currently no watches in effect.